createdAt,value
2022-10-19T00:00:47.558Z,99.99
2022-10-19T00:01:47.633Z,99.99
2022-10-19T00:02:47.575Z,99.99
2022-10-19T00:04:47.587Z,99.99
2022-10-19T00:05:47.596Z,99.99
2022-10-19T00:06:47.617Z,99.99
2022-10-19T00:07:47.654Z,99.99
2022-10-19T00:08:47.619Z,99.99
2022-10-19T00:09:47.619Z,99.99
2022-10-19T00:10:47.639Z,99.99
2022-10-19T00:11:47.648Z,99.99
2022-10-19T00:13:47.659Z,99.99
2022-10-19T00:14:47.660Z,99.99
2022-10-19T00:15:47.667Z,99.99
2022-10-19T00:16:47.698Z,99.99
2022-10-19T00:17:47.692Z,99.99
2022-10-19T00:18:47.700Z,99.99
2022-10-19T00:19:47.721Z,99.99
2022-10-19T00:20:47.721Z,99.99
2022-10-19T00:21:47.870Z,99.99
2022-10-19T00:22:47.763Z,99.99
2022-10-19T00:23:47.778Z,99.99
2022-10-19T00:24:47.783Z,99.99
2022-10-19T00:25:47.792Z,99.99
2022-10-19T00:26:47.836Z,99.99
2022-10-19T00:27:47.821Z,99.99
2022-10-19T00:28:47.907Z,99.99
2022-10-19T00:29:47.854Z,99.99
2022-10-19T00:31:47.884Z,99.99
2022-10-19T00:32:47.894Z,99.99
2022-10-19T00:33:47.895Z,99.99
2022-10-19T00:34:47.914Z,99.99
2022-10-19T00:35:47.926Z,99.99
2022-10-19T00:36:47.957Z,99.99
2022-10-19T00:37:47.957Z,99.99
2022-10-19T00:38:47.967Z,99.99
2022-10-19T00:39:48.025Z,99.99
2022-10-19T00:40:48.004Z,99.99
2022-10-19T00:41:48.011Z,99.99
2022-10-19T00:42:48.014Z,99.99
2022-10-19T00:43:48.027Z,99.99
2022-10-19T00:44:48.038Z,99.99
2022-10-19T00:45:48.038Z,99.99
2022-10-19T00:46:48.087Z,99.99
2022-10-19T00:47:48.076Z,99.99
2022-10-19T00:49:48.104Z,99.99
2022-10-19T00:50:48.121Z,99.99
2022-10-19T00:51:48.139Z,99.99
2022-10-19T00:52:48.151Z,99.99
2022-10-19T00:53:48.149Z,99.99
2022-10-19T00:54:48.172Z,99.99
2022-10-19T00:55:48.180Z,99.99
2022-10-19T00:56:48.210Z,99.99
2022-10-19T00:57:48.218Z,99.99
2022-10-19T00:58:48.222Z,99.99
2022-10-19T00:59:55.254Z,99.99
2022-10-19T01:00:48.306Z,99.99
2022-10-19T01:01:48.286Z,99.99
2022-10-19T01:02:48.288Z,99.99
2022-10-19T01:03:48.299Z,99.99
2022-10-19T01:04:48.338Z,99.99
2022-10-19T01:05:48.327Z,99.99
2022-10-19T01:06:48.419Z,99.99
2022-10-19T01:07:48.369Z,99.99
2022-10-19T01:08:48.380Z,99.99
2022-10-19T01:09:48.400Z,99.99
2022-10-19T01:10:48.419Z,99.99
2022-10-19T01:11:48.441Z,99.99
2022-10-19T01:12:48.503Z,99.99
2022-10-19T01:13:48.451Z,99.99
2022-10-19T01:14:48.468Z,99.99
2022-10-19T01:15:48.500Z,99.99
2022-10-19T01:16:48.516Z,99.99
2022-10-19T01:17:48.488Z,99.99
2022-10-19T01:18:48.491Z,99.99
2022-10-19T01:19:48.499Z,99.99
2022-10-19T01:20:48.521Z,99.99
2022-10-19T01:21:48.530Z,99.99
2022-10-19T01:22:48.543Z,99.99
2022-10-19T01:23:48.543Z,99.99
2022-10-19T01:24:48.583Z,99.99
2022-10-19T01:25:48.554Z,99.99
2022-10-19T01:26:48.592Z,99.99
2022-10-19T01:27:48.591Z,99.99
2022-10-19T01:28:48.708Z,99.99
2022-10-19T01:29:48.614Z,99.99
2022-10-19T01:30:48.618Z,99.99
2022-10-19T01:31:48.645Z,99.99
2022-10-19T01:32:48.645Z,99.99
2022-10-19T01:33:48.679Z,99.99
2022-10-19T01:34:48.661Z,99.99
2022-10-19T01:35:48.666Z,99.99
2022-10-19T01:36:48.716Z,99.99
2022-10-19T01:37:48.694Z,99.99
2022-10-19T01:38:48.726Z,99.99
2022-10-19T01:39:49.892Z,99.99
2022-10-19T01:40:48.737Z,99.99
2022-10-19T01:41:48.769Z,99.99
2022-10-19T01:42:48.828Z,99.99
2022-10-19T01:43:48.778Z,99.99
2022-10-19T01:44:48.798Z,99.99
2022-10-19T01:45:48.818Z,99.99
2022-10-19T01:46:48.847Z,99.99
2022-10-19T01:47:48.849Z,99.99
2022-10-19T01:48:48.860Z,99.99
2022-10-19T01:49:48.886Z,99.99
2022-10-19T01:50:48.899Z,99.99
2022-10-19T01:51:48.978Z,99.99
2022-10-19T01:52:48.954Z,99.99
2022-10-19T01:53:48.969Z,99.99
2022-10-19T01:54:48.981Z,99.99
2022-10-19T01:55:49.001Z,99.99
2022-10-19T01:56:49.033Z,99.99
2022-10-19T01:57:49.042Z,99.99
2022-10-19T01:58:49.052Z,99.99
2022-10-19T01:59:49.081Z,99.99
2022-10-19T02:00:49.170Z,99.99
2022-10-19T02:01:49.136Z,99.99
2022-10-19T02:02:49.133Z,99.99
2022-10-19T02:03:49.168Z,99.99
2022-10-19T02:04:49.175Z,99.99
2022-10-19T02:05:49.208Z,99.99
2022-10-19T02:06:49.243Z,99.99
2022-10-19T02:07:49.245Z,99.99
2022-10-19T02:08:49.270Z,99.99
2022-10-19T02:09:49.303Z,99.99
2022-10-19T02:10:49.323Z,99.99
2022-10-19T02:11:50.501Z,99.99
2022-10-19T02:12:49.384Z,99.99
2022-10-19T02:13:49.417Z,99.99
2022-10-19T02:14:49.436Z,99.99
2022-10-19T02:15:49.466Z,99.99
2022-10-19T02:16:49.497Z,99.99
2022-10-19T02:17:49.517Z,99.99
2022-10-19T02:18:49.527Z,99.99
2022-10-19T02:19:49.548Z,99.99
2022-10-19T02:20:49.576Z,99.99
2022-10-19T02:21:49.625Z,99.99
2022-10-19T02:22:49.628Z,99.99
2022-10-19T02:23:51.890Z,99.99
2022-10-19T02:24:49.689Z,99.99
2022-10-19T02:25:49.709Z,99.99
2022-10-19T02:26:49.767Z,99.99
2022-10-19T02:27:49.769Z,99.99
2022-10-19T02:28:49.799Z,99.99
2022-10-19T02:29:49.816Z,99.99
2022-10-19T02:30:49.841Z,99.99
2022-10-19T02:31:49.870Z,99.99
2022-10-19T02:32:49.890Z,99.99
2022-10-19T02:33:49.911Z,99.99
2022-10-19T02:34:49.949Z,99.99
2022-10-19T02:35:49.977Z,99.99
2022-10-19T02:36:50.024Z,99.99
2022-10-19T02:37:50.034Z,99.99
2022-10-19T02:38:50.068Z,99.99
2022-10-19T02:39:50.092Z,99.99
2022-10-19T02:40:50.126Z,99.99
2022-10-19T02:41:50.161Z,99.99
2022-10-19T02:42:50.174Z,99.99
2022-10-19T02:43:50.211Z,99.99
2022-10-19T02:44:50.245Z,99.99
2022-10-19T02:45:50.274Z,99.99
2022-10-19T02:46:50.325Z,99.99
2022-10-19T02:47:50.342Z,99.99
2022-10-19T02:48:50.374Z,99.99
2022-10-19T02:49:50.406Z,99.99
2022-10-19T02:50:50.435Z,99.99
2022-10-19T02:51:50.482Z,99.99
2022-10-19T02:52:50.495Z,99.99
2022-10-19T02:53:50.526Z,99.99
2022-10-19T02:54:50.557Z,99.99
2022-10-19T02:55:50.609Z,99.99
2022-10-19T02:56:50.626Z,99.99
2022-10-19T02:57:50.637Z,99.99
2022-10-19T02:58:50.679Z,99.99
2022-10-19T02:59:50.699Z,99.99
2022-10-19T03:00:50.784Z,99.99
2022-10-19T03:01:50.776Z,99.99
2022-10-19T03:02:50.799Z,99.99
2022-10-19T03:03:50.828Z,99.99
2022-10-19T03:04:50.872Z,99.99
2022-10-19T03:05:50.899Z,99.99
2022-10-19T03:06:50.949Z,99.99
2022-10-19T03:07:50.960Z,99.99
2022-10-19T03:08:50.999Z,99.99
2022-10-19T03:09:51.030Z,99.99
2022-10-19T03:10:51.069Z,99.99
2022-10-19T03:11:51.110Z,99.99
2022-10-19T03:12:51.130Z,99.99
2022-10-19T03:13:51.182Z,99.99
2022-10-19T03:14:51.192Z,99.99
2022-10-19T03:15:51.230Z,99.99
2022-10-19T03:16:51.271Z,99.99
2022-10-19T03:17:51.293Z,99.99
2022-10-19T03:18:51.331Z,99.99
2022-10-19T03:19:51.353Z,99.99
2022-10-19T03:20:51.392Z,99.99
2022-10-19T03:21:51.433Z,99.99
2022-10-19T03:23:51.463Z,99.99
2022-10-19T03:24:51.506Z,99.99
2022-10-19T03:25:51.536Z,99.99
2022-10-19T03:26:51.579Z,99.99
2022-10-19T03:27:51.591Z,99.99
2022-10-19T03:28:51.639Z,99.99
2022-10-19T03:29:51.645Z,99.99
2022-10-19T03:30:51.674Z,99.99
2022-10-19T03:31:51.704Z,99.99
2022-10-19T03:32:51.726Z,99.99
2022-10-19T03:33:51.755Z,99.99
2022-10-19T03:34:51.785Z,99.99
2022-10-19T03:35:51.806Z,99.99
2022-10-19T03:36:51.846Z,99.99
2022-10-19T03:37:51.864Z,99.99
2022-10-19T03:38:51.888Z,99.99
2022-10-19T03:39:51.907Z,99.99
2022-10-19T03:40:51.937Z,99.99
2022-10-19T03:41:51.968Z,99.99
2022-10-19T03:42:51.989Z,99.99
2022-10-19T03:43:52.033Z,99.99
2022-10-19T03:44:52.039Z,99.99
2022-10-19T03:45:52.050Z,99.99
2022-10-19T03:46:52.098Z,99.99
2022-10-19T03:47:52.099Z,99.99
2022-10-19T03:48:52.130Z,99.99
2022-10-19T03:49:52.148Z,99.99
2022-10-19T03:50:52.169Z,99.99
2022-10-19T03:51:52.201Z,99.99
2022-10-19T03:52:52.257Z,99.99
2022-10-19T03:53:52.232Z,99.99
2022-10-19T03:54:52.255Z,99.99
2022-10-19T03:55:52.271Z,99.99
2022-10-19T03:56:52.311Z,99.99
2022-10-19T03:57:52.311Z,99.99
2022-10-19T03:58:52.342Z,99.99
2022-10-19T03:59:52.357Z,99.99
2022-10-19T04:00:52.424Z,99.99
2022-10-19T04:01:52.433Z,99.99
2022-10-19T04:02:52.650Z,99.99
2022-10-19T04:03:52.453Z,99.99
2022-10-19T04:04:52.483Z,99.99
2022-10-19T04:05:52.494Z,99.99
2022-10-19T04:06:52.535Z,99.99
2022-10-19T04:07:52.534Z,99.99
2022-10-19T04:08:52.574Z,99.99
2022-10-19T04:09:52.587Z,99.99
2022-10-19T04:10:52.625Z,99.99
2022-10-19T04:11:52.655Z,99.99
2022-10-19T04:12:53.886Z,99.99
2022-10-19T04:13:52.690Z,99.99
2022-10-19T04:14:57.250Z,99.99
2022-10-19T04:15:53.741Z,99.99
2022-10-19T04:16:52.777Z,99.99
2022-10-19T04:17:52.781Z,99.99
2022-10-19T04:18:52.815Z,99.99
2022-10-19T04:19:52.836Z,99.99
2022-10-19T04:20:52.859Z,99.99
2022-10-19T04:21:52.902Z,99.99
2022-10-19T04:22:52.917Z,99.99
2022-10-19T04:23:52.946Z,99.99
2022-10-19T04:24:52.968Z,99.99
2022-10-19T04:25:52.991Z,99.99
2022-10-19T04:26:53.029Z,99.99
2022-10-19T04:27:53.029Z,99.99
2022-10-19T04:28:53.118Z,99.99
2022-10-19T04:29:53.069Z,99.99
2022-10-19T04:30:53.090Z,99.99
2022-10-19T04:31:53.120Z,99.99
2022-10-19T04:32:53.121Z,99.99
2022-10-19T04:33:53.143Z,99.99
2022-10-19T04:34:53.173Z,99.99
2022-10-19T04:35:53.181Z,99.99
2022-10-19T04:36:53.222Z,99.99
2022-10-19T04:37:53.212Z,99.99
2022-10-19T04:38:53.243Z,99.99
2022-10-19T04:39:53.253Z,99.99
2022-10-19T04:40:53.283Z,99.99
2022-10-19T04:41:53.304Z,99.99
2022-10-19T04:42:53.313Z,99.99
2022-10-19T04:43:53.324Z,99.99
2022-10-19T04:44:53.344Z,99.99
2022-10-19T04:45:53.365Z,99.99
2022-10-19T04:46:53.410Z,99.99
2022-10-19T04:47:53.456Z,99.99
2022-10-19T04:48:53.426Z,99.99
2022-10-19T04:49:53.445Z,99.99
2022-10-19T04:50:53.473Z,99.99
2022-10-19T04:51:53.505Z,99.99
2022-10-19T04:52:53.513Z,99.99
2022-10-19T04:53:55.625Z,99.99
2022-10-19T04:54:54.549Z,99.99
2022-10-19T04:55:53.557Z,99.99
2022-10-19T04:56:53.587Z,99.99
2022-10-19T04:57:53.577Z,99.99
2022-10-19T04:58:53.599Z,99.99
2022-10-19T04:59:53.607Z,99.99
2022-10-19T05:00:53.684Z,99.99
2022-10-19T05:01:53.658Z,99.99
2022-10-19T05:02:53.650Z,99.99
2022-10-19T05:03:53.699Z,99.99
2022-10-19T05:04:53.680Z,99.99
2022-10-19T05:05:53.697Z,99.99
2022-10-19T05:06:53.729Z,99.99
2022-10-19T05:07:53.730Z,99.99
2022-10-19T05:08:53.757Z,99.99
2022-10-19T05:09:53.770Z,99.99
2022-10-19T05:10:53.790Z,99.99
2022-10-19T05:11:53.821Z,99.99
2022-10-19T05:12:53.831Z,99.99
2022-10-19T05:13:53.841Z,99.99
2022-10-19T05:14:53.869Z,99.99
2022-10-19T05:15:53.872Z,99.99
2022-10-19T05:16:53.902Z,99.99
2022-10-19T05:17:53.903Z,99.99
2022-10-19T05:18:53.934Z,99.99
2022-10-19T05:19:53.970Z,99.99
2022-10-19T05:20:53.983Z,99.99
2022-10-19T05:21:54.014Z,99.99
2022-10-19T05:22:54.034Z,99.99
2022-10-19T05:23:54.054Z,99.99
2022-10-19T05:24:57.363Z,99.99
2022-10-19T05:25:54.106Z,99.99
2022-10-19T05:26:54.150Z,99.99
2022-10-19T05:27:54.156Z,99.99
2022-10-19T05:28:54.223Z,99.99
2022-10-19T05:29:54.204Z,99.99
2022-10-19T05:30:54.229Z,99.99
2022-10-19T05:31:54.266Z,99.99
2022-10-19T05:32:54.291Z,99.99
2022-10-19T05:33:54.389Z,99.99
2022-10-19T05:34:54.328Z,99.99
2022-10-19T05:35:54.368Z,99.99
2022-10-19T05:36:54.388Z,99.99
2022-10-19T05:37:54.398Z,99.99
2022-10-19T05:38:54.429Z,99.99
2022-10-19T05:39:54.454Z,99.99
2022-10-19T05:40:54.487Z,99.99
2022-10-19T05:41:54.519Z,99.99
2022-10-19T05:42:54.539Z,99.99
2022-10-19T05:43:54.561Z,99.99
2022-10-19T05:44:54.606Z,99.99
2022-10-19T05:45:54.638Z,99.99
2022-10-19T05:46:54.687Z,99.99
2022-10-19T05:47:54.690Z,99.99
2022-10-19T05:48:54.721Z,99.99
2022-10-19T05:49:54.740Z,99.99
2022-10-19T05:50:54.771Z,99.99
2022-10-19T05:51:54.812Z,99.99
2022-10-19T05:52:54.831Z,99.99
2022-10-19T05:53:54.852Z,99.99
2022-10-19T05:54:54.892Z,99.99
2022-10-19T05:55:54.922Z,99.99
2022-10-19T05:56:54.973Z,99.99
2022-10-19T05:57:54.984Z,99.99
2022-10-19T05:58:55.027Z,99.99
2022-10-19T05:59:55.043Z,99.99
2022-10-19T06:00:55.082Z,99.99
2022-10-19T06:01:55.126Z,99.99
2022-10-19T06:02:59.028Z,99.99
2022-10-19T06:03:55.155Z,99.99
2022-10-19T06:04:55.185Z,99.99
2022-10-19T06:05:55.214Z,99.99
2022-10-19T06:06:55.264Z,99.99
2022-10-19T06:07:55.276Z,99.99
2022-10-19T06:08:55.316Z,99.99
2022-10-19T06:09:55.346Z,99.99
2022-10-19T06:10:55.384Z,99.99
2022-10-19T06:11:55.434Z,99.99
2022-10-19T06:12:55.457Z,99.99
2022-10-19T06:13:55.493Z,99.99
2022-10-19T06:14:55.537Z,99.99
2022-10-19T06:15:55.556Z,99.99
2022-10-19T06:16:55.617Z,99.99
2022-10-19T06:17:55.628Z,99.99
2022-10-19T06:18:55.668Z,99.99
2022-10-19T06:19:55.699Z,99.99
2022-10-19T06:20:55.748Z,99.99
2022-10-19T06:21:55.797Z,99.99
2022-10-19T06:22:55.822Z,99.99
2022-10-19T06:23:55.849Z,99.99
2022-10-19T06:24:55.889Z,99.99
2022-10-19T06:25:55.928Z,99.99
2022-10-19T06:26:55.987Z,99.99
2022-10-19T06:27:56.033Z,99.99
2022-10-19T06:28:56.042Z,99.99
2022-10-19T06:29:56.071Z,99.99
2022-10-19T06:30:56.161Z,99.99
2022-10-19T06:31:56.152Z,99.99
2022-10-19T06:32:56.219Z,99.99
2022-10-19T06:33:56.240Z,99.99
2022-10-19T06:34:56.732Z,99.99
2022-10-19T06:35:56.281Z,99.99
2022-10-19T06:36:56.341Z,99.99
2022-10-19T06:37:56.352Z,99.99
2022-10-19T06:38:56.394Z,99.99
2022-10-19T06:39:56.474Z,99.99
2022-10-19T06:40:56.463Z,99.99
2022-10-19T06:41:56.522Z,99.99
2022-10-19T06:42:56.541Z,99.99
2022-10-19T06:43:56.573Z,99.99
2022-10-19T06:44:56.603Z,99.99
2022-10-19T06:45:56.644Z,99.99
2022-10-19T06:46:56.692Z,99.99
2022-10-19T06:47:56.722Z,99.99
2022-10-19T06:48:56.757Z,99.99
2022-10-19T06:49:56.795Z,99.99
2022-10-19T06:50:56.816Z,99.99
2022-10-19T06:51:56.883Z,99.99
2022-10-19T06:52:56.886Z,99.99
2022-10-19T06:53:57.475Z,99.99
2022-10-19T06:54:56.946Z,99.99
2022-10-19T06:55:56.986Z,99.99
2022-10-19T06:56:57.027Z,99.99
2022-10-19T06:57:57.051Z,99.99
2022-10-19T06:58:57.067Z,99.99
2022-10-19T06:59:57.107Z,99.99
2022-10-19T07:00:57.246Z,99.99
2022-10-19T07:01:57.187Z,99.99
2022-10-19T07:02:57.198Z,99.99
2022-10-19T07:03:57.230Z,99.99
2022-10-19T07:04:57.249Z,99.99
2022-10-19T07:05:57.278Z,99.99
2022-10-19T07:06:57.319Z,99.99
2022-10-19T07:07:57.408Z,99.99
2022-10-19T07:08:57.360Z,99.99
2022-10-19T07:09:57.379Z,99.99
2022-10-19T07:10:57.400Z,99.99
2022-10-19T07:11:57.459Z,99.99
2022-10-19T07:12:57.513Z,99.99
2022-10-19T07:13:57.489Z,99.99
2022-10-19T07:14:57.511Z,99.99
2022-10-19T07:15:57.551Z,99.99
2022-10-19T07:16:57.589Z,99.99
2022-10-19T07:17:57.591Z,99.99
2022-10-19T07:18:57.603Z,99.99
2022-10-19T07:19:57.687Z,99.99
2022-10-19T07:20:57.662Z,99.99
2022-10-19T07:21:57.714Z,99.99
2022-10-19T07:22:57.713Z,99.99
2022-10-19T07:23:57.744Z,99.99
2022-10-19T07:24:57.763Z,99.99
2022-10-19T07:25:57.801Z,99.99
2022-10-19T07:26:57.843Z,99.99
2022-10-19T07:27:57.856Z,99.99
2022-10-19T07:28:57.893Z,99.99
2022-10-19T07:29:57.905Z,99.99
2022-10-19T07:30:57.927Z,99.99
2022-10-19T07:31:57.967Z,99.99
2022-10-19T07:32:57.966Z,99.99
2022-10-19T07:33:57.996Z,99.99
2022-10-19T07:34:58.006Z,99.99
2022-10-19T07:35:58.027Z,99.99
2022-10-19T07:36:58.054Z,99.99
2022-10-19T07:37:58.057Z,99.99
2022-10-19T07:38:58.077Z,99.99
2022-10-19T07:39:58.100Z,99.99
2022-10-19T07:40:58.109Z,99.99
2022-10-19T07:41:58.152Z,99.99
2022-10-19T07:42:58.148Z,99.99
2022-10-19T07:43:58.180Z,99.99
2022-10-19T07:44:58.189Z,99.99
2022-10-19T07:45:58.218Z,99.99
2022-10-19T07:46:58.249Z,99.99
2022-10-19T07:47:58.259Z,99.99
2022-10-19T07:48:58.269Z,99.99
2022-10-19T07:49:58.290Z,99.99
2022-10-19T07:50:58.311Z,99.99
2022-10-19T07:51:58.342Z,99.99
2022-10-19T07:52:58.341Z,99.99
2022-10-19T07:53:58.361Z,99.99
2022-10-19T07:54:58.380Z,99.99
2022-10-19T07:55:58.392Z,99.99
2022-10-19T07:56:58.423Z,99.99
2022-10-19T07:57:58.431Z,99.99
2022-10-19T07:58:58.442Z,99.99
2022-10-19T07:59:58.474Z,99.99
2022-10-19T08:00:58.473Z,99.99
2022-10-19T08:01:58.550Z,99.99
2022-10-19T08:03:19.314Z,99.99
2022-10-19T08:05:02.045Z,99.99
2022-10-19T08:05:58.543Z,99.99
2022-10-19T08:06:58.563Z,99.99
2022-10-19T08:07:58.564Z,99.99
2022-10-19T08:08:58.642Z,99.99
2022-10-19T08:09:58.585Z,99.99
2022-10-19T08:10:58.593Z,99.99
2022-10-19T08:11:58.627Z,99.98
2022-10-19T08:12:58.603Z,99.56
2022-10-19T08:13:58.639Z,98.95
2022-10-19T08:14:58.609Z,98.65
2022-10-19T08:15:58.624Z,98.24
2022-10-19T08:16:58.626Z,98.19
2022-10-19T08:17:58.635Z,97.67
2022-10-19T08:18:58.621Z,97.47
2022-10-19T08:19:58.626Z,96.49
2022-10-19T08:20:58.620Z,96.19
2022-10-19T08:21:58.627Z,96.91
2022-10-19T08:22:59.167Z,96.66
2022-10-19T08:23:58.638Z,96.45
2022-10-19T08:24:58.620Z,96.96
2022-10-19T08:25:58.621Z,95.73
2022-10-19T08:26:58.622Z,95.12
2022-10-19T08:27:58.632Z,94.97
2022-10-19T08:28:58.621Z,94.36
2022-10-19T08:29:58.630Z,93.65
2022-10-19T08:30:58.622Z,92.62
2022-10-19T08:31:58.636Z,94.26
2022-10-19T08:32:58.640Z,94.97
2022-10-19T08:33:58.632Z,94.67
2022-10-19T08:34:58.633Z,95.18
2022-10-19T08:35:58.634Z,93.24
2022-10-19T08:36:58.630Z,94.15
2022-10-19T08:37:58.824Z,93.44
2022-10-19T08:38:58.624Z,92.52
2022-10-19T08:39:58.640Z,93.03
2022-10-19T08:40:58.623Z,94.21
2022-10-19T08:41:58.632Z,93.29
2022-10-19T08:42:58.636Z,91.46
2022-10-19T08:43:58.613Z,90.99
2022-10-19T08:44:58.746Z,90.78
2022-10-19T08:45:58.605Z,91.70
2022-10-19T08:47:00.496Z,91.91
2022-10-19T08:47:58.594Z,91.54
2022-10-19T08:48:58.598Z,92.32
2022-10-19T08:49:58.587Z,91.44
2022-10-19T08:50:58.590Z,92.05
2022-10-19T08:51:58.578Z,92.25
2022-10-19T08:52:58.575Z,92.50
2022-10-19T08:53:58.578Z,91.99
2022-10-19T08:54:58.570Z,92.50
2022-10-19T08:55:59.782Z,91.78
2022-10-19T08:56:59.570Z,91.07
2022-10-19T08:57:58.600Z,91.99
2022-10-19T08:58:58.572Z,93.32
2022-10-19T08:59:58.572Z,93.28
2022-10-19T09:00:58.563Z,93.28
2022-10-19T09:01:58.560Z,93.99
2022-10-19T09:02:58.542Z,91.74
2022-10-19T09:03:58.837Z,91.60
2022-10-19T09:04:58.550Z,92.21
2022-10-19T09:05:58.533Z,91.80
2022-10-19T09:06:58.523Z,90.58
2022-10-19T09:07:58.523Z,92.52
2022-10-19T09:08:58.593Z,92.17
2022-10-19T09:09:58.526Z,91.86
2022-10-19T09:10:58.504Z,90.88
2022-10-19T09:11:58.494Z,90.58
2022-10-19T09:12:58.775Z,88.23
2022-10-19T09:14:05.217Z,89.35
2022-10-19T09:14:59.484Z,89.15
2022-10-19T09:15:58.463Z,90.37
2022-10-19T09:16:58.446Z,91.39
2022-10-19T09:17:58.446Z,90.88
2022-10-19T09:18:58.452Z,90.88
2022-10-19T09:19:58.427Z,89.97
2022-10-19T09:20:58.427Z,89.15
2022-10-19T09:21:58.424Z,89.70
2022-10-19T09:22:58.408Z,89.80
2022-10-19T09:23:58.412Z,90.82
2022-10-19T09:24:58.397Z,90.58
2022-10-19T09:25:58.413Z,88.53
2022-10-19T09:26:58.391Z,87.41
2022-10-19T09:27:58.447Z,87.82
2022-10-19T09:28:58.384Z,88.02
2022-10-19T09:29:58.383Z,88.02
2022-10-19T09:30:58.379Z,87.92
2022-10-19T09:32:58.362Z,88.79
2022-10-19T09:33:58.351Z,90.02
2022-10-19T09:34:58.343Z,90.19
2022-10-19T09:35:58.368Z,86.51
2022-10-19T09:36:58.361Z,88.76
2022-10-19T09:37:58.318Z,88.04
2022-10-19T09:38:58.311Z,87.53
2022-10-19T09:39:58.303Z,85.28
2022-10-19T09:40:58.293Z,87.47
2022-10-19T09:41:58.314Z,87.88
2022-10-19T09:42:58.277Z,88.18
2022-10-19T09:43:58.265Z,87.57
2022-10-19T09:44:58.252Z,85.63
2022-10-19T09:45:58.245Z,87.30
2022-10-19T09:46:58.246Z,87.51
2022-10-19T09:48:04.556Z,87.82
2022-10-19T09:48:59.225Z,87.04
2022-10-19T09:49:58.226Z,87.45
2022-10-19T09:50:58.225Z,87.76
2022-10-19T09:51:58.226Z,86.67
2022-10-19T09:52:58.215Z,87.38
2022-10-19T09:53:58.197Z,88.20
2022-10-19T09:54:58.187Z,86.83
2022-10-19T09:55:58.193Z,85.61
2022-10-19T09:56:58.187Z,86.22
2022-10-19T09:57:58.179Z,86.08
2022-10-19T09:58:58.179Z,84.65
2022-10-19T09:59:58.186Z,86.08
2022-10-19T10:00:58.160Z,83.89
2022-10-19T10:01:58.228Z,83.89
2022-10-19T10:02:58.140Z,84.41
2022-10-19T10:03:58.141Z,84.91
2022-10-19T10:04:58.131Z,87.32
2022-10-19T10:05:58.130Z,87.94
2022-10-19T10:06:58.122Z,84.57
2022-10-19T10:07:58.132Z,84.53
2022-10-19T10:08:58.206Z,82.39
2022-10-19T10:09:58.102Z,84.94
2022-10-19T10:10:58.092Z,84.22
2022-10-19T10:11:58.096Z,83.40
2022-10-19T10:12:58.101Z,83.20
2022-10-19T10:13:58.083Z,83.04
2022-10-19T10:14:58.074Z,84.77
2022-10-19T10:15:58.082Z,85.35
2022-10-19T10:16:58.055Z,83.85
2022-10-19T10:17:58.054Z,85.38
2022-10-19T10:18:58.034Z,85.45
2022-10-19T10:19:58.030Z,83.61
2022-10-19T10:21:58.005Z,84.22
2022-10-19T10:22:58.010Z,83.20
2022-10-19T10:23:57.986Z,82.59
2022-10-19T10:24:57.967Z,82.89
2022-10-19T10:25:57.956Z,86.06
2022-10-19T10:26:57.936Z,83.20
2022-10-19T10:27:57.951Z,84.74
2022-10-19T10:29:00.708Z,82.39
2022-10-19T10:29:57.921Z,82.69
2022-10-19T10:30:57.898Z,83.40
2022-10-19T10:31:57.899Z,81.46
2022-10-19T10:33:04.721Z,82.89
2022-10-19T10:34:06.483Z,82.08
2022-10-19T10:35:01.358Z,83.10
2022-10-19T10:35:57.859Z,84.01
2022-10-19T10:36:57.849Z,79.73
2022-10-19T10:37:57.830Z,80.34
2022-10-19T10:38:57.874Z,81.46
2022-10-19T10:40:00.485Z,81.73
2022-10-19T10:40:58.810Z,83.87
2022-10-19T10:41:57.802Z,82.45
2022-10-19T10:42:57.790Z,82.55
2022-10-19T10:44:00.760Z,81.73
2022-10-19T10:44:58.773Z,80.20
2022-10-19T10:45:57.774Z,81.43
2022-10-19T10:46:57.766Z,80.20
2022-10-19T10:47:57.803Z,80.24
2022-10-19T10:48:57.794Z,81.37
2022-10-19T10:49:57.753Z,80.44
2022-10-19T10:50:57.734Z,79.22
2022-10-19T10:51:57.726Z,79.63
2022-10-19T10:52:57.715Z,78.91
2022-10-19T10:53:57.726Z,77.48
2022-10-19T10:54:57.707Z,80.65
2022-10-19T10:55:57.686Z,79.12
2022-10-19T10:56:57.724Z,79.32
2022-10-19T10:57:57.668Z,80.14
2022-10-19T10:58:57.676Z,80.65
2022-10-19T10:59:57.665Z,81.46
2022-10-19T11:00:57.648Z,82.18
2022-10-19T11:01:57.668Z,81.37
2022-10-19T11:02:57.637Z,82.14
2022-10-19T11:03:57.619Z,82.35
2022-10-19T11:04:57.618Z,84.28
2022-10-19T11:05:57.589Z,83.78
2022-10-19T11:06:57.580Z,82.55
2022-10-19T11:07:57.559Z,83.43
2022-10-19T11:08:57.579Z,82.51
2022-10-19T11:09:57.521Z,82.10
2022-10-19T11:10:57.513Z,84.25
2022-10-19T11:11:57.482Z,81.35
2022-10-19T11:12:57.479Z,81.15
2022-10-19T11:13:57.451Z,81.45
2022-10-19T11:14:57.442Z,81.35
2022-10-19T11:15:57.431Z,80.84
2022-10-19T11:16:57.414Z,80.13
2022-10-19T11:17:57.393Z,80.02
2022-10-19T11:18:57.382Z,79.96
2022-10-19T11:19:57.354Z,81.29
2022-10-19T11:20:57.370Z,81.18
2022-10-19T11:21:57.334Z,79.45
2022-10-19T11:22:57.317Z,78.94
2022-10-19T11:23:57.294Z,78.27
2022-10-19T11:24:57.287Z,79.59
2022-10-19T11:25:57.266Z,81.12
2022-10-19T11:26:57.246Z,78.84
2022-10-19T11:27:57.229Z,78.43
2022-10-19T11:28:57.216Z,79.35
2022-10-19T11:29:57.196Z,79.04
2022-10-19T11:30:57.195Z,78.33
2022-10-19T11:31:57.158Z,79.66
2022-10-19T11:32:57.140Z,76.59
2022-10-19T11:33:57.121Z,79.45
2022-10-19T11:34:57.108Z,80.74
2022-10-19T11:35:57.098Z,77.27
2022-10-19T11:36:57.068Z,75.13
2022-10-19T11:38:18.388Z,77.62
2022-10-19T11:38:58.035Z,78.43
2022-10-19T11:39:57.008Z,78.19
2022-10-19T11:41:16.790Z,75.95
2022-10-19T11:41:57.961Z,77.41
2022-10-19T11:42:56.954Z,77.41
2022-10-19T11:43:56.931Z,76.35
2022-10-19T11:44:56.923Z,77.98
2022-10-19T11:45:56.913Z,77.17
2022-10-19T11:46:56.902Z,78.80
2022-10-19T11:47:56.892Z,79.21
2022-10-19T11:48:56.870Z,77.48
2022-10-19T11:49:56.908Z,78.30
2022-10-19T11:50:58.909Z,77.68
2022-10-19T11:51:57.804Z,77.92
2022-10-19T11:52:56.794Z,77.11
2022-10-19T11:53:56.773Z,77.17
2022-10-19T11:54:56.766Z,76.80
2022-10-19T11:55:56.754Z,78.02
2022-10-19T11:57:04.745Z,79.25
2022-10-19T11:57:57.696Z,78.91
2022-10-19T11:58:56.683Z,78.30
2022-10-19T12:00:03.718Z,77.68
2022-10-19T12:00:57.649Z,76.56
2022-10-19T12:01:56.674Z,75.95
2022-10-19T12:02:59.360Z,78.80
2022-10-19T12:03:57.579Z,76.97
2022-10-19T12:04:56.557Z,76.46
2022-10-19T12:05:56.539Z,76.46
2022-10-19T12:06:56.517Z,76.87
2022-10-19T12:07:56.503Z,77.89
2022-10-19T12:08:56.619Z,75.71
2022-10-19T12:09:56.475Z,75.23
2022-10-19T12:10:56.459Z,75.64
2022-10-19T12:11:56.452Z,76.76
2022-10-19T12:12:56.421Z,75.64
2022-10-19T12:13:56.406Z,75.85
2022-10-19T12:14:56.382Z,74.93
2022-10-19T12:15:56.389Z,75.34
2022-10-19T12:16:56.349Z,75.64
2022-10-19T12:17:56.313Z,75.85
2022-10-19T12:18:56.303Z,74.42
2022-10-19T12:19:56.280Z,76.66
2022-10-19T12:20:56.272Z,76.46
2022-10-19T12:21:56.253Z,78.19
2022-10-19T12:22:56.233Z,76.22
2022-10-19T12:23:56.214Z,75.30
2022-10-19T12:24:56.213Z,74.99
2022-10-19T12:25:56.196Z,76.22
2022-10-19T12:26:56.195Z,75.92
2022-10-19T12:27:56.164Z,75.60
2022-10-19T12:28:56.154Z,75.51
2022-10-19T12:29:56.126Z,77.24
2022-10-19T12:30:56.124Z,78.56
2022-10-19T12:31:56.109Z,76.01
2022-10-19T12:32:56.089Z,76.42
2022-10-19T12:33:56.074Z,75.10
2022-10-19T12:34:56.055Z,74.49
2022-10-19T12:35:56.028Z,74.73
2022-10-19T12:36:56.039Z,77.34
2022-10-19T12:37:55.998Z,76.93
2022-10-19T12:39:00.159Z,77.03
2022-10-19T12:39:55.970Z,75.60
2022-10-19T12:40:55.968Z,75.10
2022-10-19T12:41:55.959Z,75.60
2022-10-19T12:42:55.950Z,74.99
2022-10-19T12:43:55.920Z,75.71
2022-10-19T12:44:58.562Z,73.97
2022-10-19T12:45:55.901Z,74.58
2022-10-19T12:46:58.785Z,75.30
2022-10-19T12:47:55.891Z,75.60
2022-10-19T12:48:55.861Z,74.79
2022-10-19T12:49:55.845Z,74.58
2022-10-19T12:50:55.832Z,74.79
2022-10-19T12:51:55.810Z,74.90
2022-10-19T12:52:55.802Z,75.20
2022-10-19T12:53:55.763Z,74.49
2022-10-19T12:54:55.754Z,75.20
2022-10-19T12:55:55.731Z,74.99
2022-10-19T12:56:55.722Z,74.96
2022-10-19T12:57:55.705Z,74.58
2022-10-19T12:58:55.675Z,75.10
2022-10-19T13:00:02.783Z,74.55
2022-10-19T13:00:55.678Z,73.02